sensor_id;sensor_type;location;lat;lon;timestamp;pressure;altitude;pressure_sealevel;temperature;humidity
6134;BME280;3098;42.678;23.364;2022-07-09T00:01:49;94828.22;;;16.99;100.00
6134;BME280;3098;42.678;23.364;2022-07-09T00:04:16;94800.16;;;16.78;100.00
6134;BME280;3098;42.678;23.364;2022-07-09T00:06:45;94752.16;;;16.38;100.00
6134;BME280;3098;42.678;23.364;2022-07-09T00:09:12;94831.34;;;16.86;100.00
6134;BME280;3098;42.678;23.364;2022-07-09T00:11:39;94781.63;;;16.53;100.00
6134;BME280;3098;42.678;23.364;2022-07-09T00:14:06;94799.31;;;16.58;100.00
6134;BME280;3098;42.678;23.364;2022-07-09T00:16:33;94830.56;;;16.70;100.00
6134;BME280;3098;42.678;23.364;2022-07-09T00:19:01;94830.75;;;16.77;100.00
6134;BME280;3098;42.678;23.364;2022-07-09T00:21:28;94809.41;;;16.64;100.00
6134;BME280;3098;42.678;23.364;2022-07-09T00:23:56;94795.00;;;16.53;100.00
6134;BME280;3098;42.678;23.364;2022-07-09T00:26:23;94778.16;;;16.22;100.00
6134;BME280;3098;42.678;23.364;2022-07-09T00:28:50;94786.94;;;16.38;100.00
6134;BME280;3098;42.678;23.364;2022-07-09T00:31:17;94793.28;;;16.61;100.00
6134;BME280;3098;42.678;23.364;2022-07-09T00:33:45;94797.94;;;16.64;100.00
6134;BME280;3098;42.678;23.364;2022-07-09T00:36:12;94793.94;;;16.74;100.00
6134;BME280;3098;42.678;23.364;2022-07-09T00:38:39;94801.72;;;16.79;100.00
6134;BME280;3098;42.678;23.364;2022-07-09T00:41:07;94801.19;;;16.73;100.00
6134;BME280;3098;42.678;23.364;2022-07-09T00:43:34;94808.09;;;16.90;100.00
6134;BME280;3098;42.678;23.364;2022-07-09T00:46:02;94801.09;;;16.85;100.00
6134;BME280;3098;42.678;23.364;2022-07-09T00:48:29;94804.44;;;16.98;100.00
6134;BME280;3098;42.678;23.364;2022-07-09T00:50:56;94798.78;;;17.03;100.00
6134;BME280;3098;42.678;23.364;2022-07-09T00:53:25;94727.38;;;16.56;100.00
6134;BME280;3098;42.678;23.364;2022-07-09T00:55:53;94783.34;;;16.96;100.00
6134;BME280;3098;42.678;23.364;2022-07-09T00:58:22;94789.13;;;16.98;100.00
6134;BME280;3098;42.678;23.364;2022-07-09T01:00:51;94791.72;;;16.95;100.00
6134;BME280;3098;42.678;23.364;2022-07-09T01:03:18;94760.84;;;16.82;100.00
6134;BME280;3098;42.678;23.364;2022-07-09T01:05:45;94785.25;;;16.96;100.00
6134;BME280;3098;42.678;23.364;2022-07-09T01:08:12;94783.69;;;16.95;100.00
6134;BME280;3098;42.678;23.364;2022-07-09T01:10:40;94766.63;;;17.03;100.00
6134;BME280;3098;42.678;23.364;2022-07-09T01:13:07;94780.50;;;16.89;100.00
6134;BME280;3098;42.678;23.364;2022-07-09T01:15:36;94768.59;;;16.87;100.00
6134;BME280;3098;42.678;23.364;2022-07-09T01:18:03;94774.75;;;16.72;100.00
6134;BME280;3098;42.678;23.364;2022-07-09T01:20:31;94789.25;;;16.86;100.00
6134;BME280;3098;42.678;23.364;2022-07-09T01:22:59;94761.38;;;16.72;100.00
6134;BME280;3098;42.678;23.364;2022-07-09T01:25:31;94763.28;;;16.71;100.00
6134;BME280;3098;42.678;23.364;2022-07-09T01:28:02;94774.22;;;16.82;100.00
6134;BME280;3098;42.678;23.364;2022-07-09T01:30:32;94754.66;;;16.46;100.00
6134;BME280;3098;42.678;23.364;2022-07-09T01:32:59;94763.47;;;16.47;100.00
6134;BME280;3098;42.678;23.364;2022-07-09T01:35:27;94766.66;;;16.52;100.00
6134;BME280;3098;42.678;23.364;2022-07-09T01:37:55;94761.81;;;16.58;100.00
6134;BME280;3098;42.678;23.364;2022-07-09T01:40:23;94769.00;;;16.38;100.00
6134;BME280;3098;42.678;23.364;2022-07-09T01:42:51;94773.16;;;16.51;100.00
6134;BME280;3098;42.678;23.364;2022-07-09T01:45:18;94771.44;;;16.59;100.00
6134;BME280;3098;42.678;23.364;2022-07-09T01:47:45;94772.97;;;16.44;100.00
6134;BME280;3098;42.678;23.364;2022-07-09T01:50:12;94769.44;;;16.40;100.00
6134;BME280;3098;42.678;23.364;2022-07-09T01:52:40;94769.69;;;16.51;100.00
6134;BME280;3098;42.678;23.364;2022-07-09T01:55:10;94771.41;;;16.43;100.00
6134;BME280;3098;42.678;23.364;2022-07-09T01:57:37;94763.13;;;16.48;100.00
6134;BME280;3098;42.678;23.364;2022-07-09T02:00:05;94731.63;;;16.26;100.00
6134;BME280;3098;42.678;23.364;2022-07-09T02:02:33;94740.19;;;16.32;100.00
6134;BME280;3098;42.678;23.364;2022-07-09T02:05:00;94776.16;;;16.50;100.00
6134;BME280;3098;42.678;23.364;2022-07-09T02:07:27;94780.94;;;16.56;100.00
6134;BME280;3098;42.678;23.364;2022-07-09T02:09:54;94774.81;;;16.56;100.00
6134;BME280;3098;42.678;23.364;2022-07-09T02:12:23;94760.28;;;16.41;100.00
6134;BME280;3098;42.678;23.364;2022-07-09T02:14:50;94765.13;;;16.51;100.00
6134;BME280;3098;42.678;23.364;2022-07-09T02:17:17;94780.75;;;16.65;100.00
6134;BME280;3098;42.678;23.364;2022-07-09T02:19:44;94765.88;;;16.67;100.00
6134;BME280;3098;42.678;23.364;2022-07-09T02:22:11;94780.38;;;16.82;100.00
6134;BME280;3098;42.678;23.364;2022-07-09T02:24:39;94765.78;;;16.64;100.00
6134;BME280;3098;42.678;23.364;2022-07-09T02:27:06;94774.38;;;16.54;100.00
6134;BME280;3098;42.678;23.364;2022-07-09T02:29:34;94778.69;;;16.58;100.00
6134;BME280;3098;42.678;23.364;2022-07-09T02:32:02;94771.06;;;16.60;100.00
6134;BME280;3098;42.678;23.364;2022-07-09T02:34:28;94790.38;;;16.85;100.00
6134;BME280;3098;42.678;23.364;2022-07-09T02:36:56;94781.16;;;16.67;100.00
6134;BME280;3098;42.678;23.364;2022-07-09T02:39:24;94744.31;;;16.45;100.00
6134;BME280;3098;42.678;23.364;2022-07-09T02:41:51;94770.72;;;16.62;100.00
6134;BME280;3098;42.678;23.364;2022-07-09T02:44:18;94713.09;;;16.18;100.00
6134;BME280;3098;42.678;23.364;2022-07-09T02:46:46;94787.31;;;16.67;100.00
6134;BME280;3098;42.678;23.364;2022-07-09T02:49:13;94774.66;;;16.84;100.00
6134;BME280;3098;42.678;23.364;2022-07-09T02:51:40;94789.28;;;17.05;100.00
6134;BME280;3098;42.678;23.364;2022-07-09T02:54:08;94793.22;;;16.92;100.00
6134;BME280;3098;42.678;23.364;2022-07-09T02:56:35;94802.19;;;17.00;100.00
6134;BME280;3098;42.678;23.364;2022-07-09T02:59:02;94806.06;;;17.02;100.00
6134;BME280;3098;42.678;23.364;2022-07-09T03:01:29;94789.19;;;16.83;100.00
6134;BME280;3098;42.678;23.364;2022-07-09T03:03:57;94813.84;;;16.92;100.00
6134;BME280;3098;42.678;23.364;2022-07-09T03:06:24;94804.94;;;16.69;100.00
6134;BME280;3098;42.678;23.364;2022-07-09T03:08:52;94795.16;;;16.45;100.00
6134;BME280;3098;42.678;23.364;2022-07-09T03:11:20;94808.81;;;16.55;100.00
6134;BME280;3098;42.678;23.364;2022-07-09T03:13:46;94809.25;;;16.57;100.00
6134;BME280;3098;42.678;23.364;2022-07-09T03:16:14;94774.59;;;16.64;100.00
6134;BME280;3098;42.678;23.364;2022-07-09T03:18:41;94786.88;;;16.65;100.00
6134;BME280;3098;42.678;23.364;2022-07-09T03:21:10;94801.72;;;16.79;100.00
6134;BME280;3098;42.678;23.364;2022-07-09T03:23:38;94795.06;;;16.73;100.00
6134;BME280;3098;42.678;23.364;2022-07-09T03:26:06;94798.63;;;16.77;100.00
6134;BME280;3098;42.678;23.364;2022-07-09T03:28:34;94808.38;;;17.04;100.00
6134;BME280;3098;42.678;23.364;2022-07-09T03:31:01;94801.59;;;16.91;100.00
6134;BME280;3098;42.678;23.364;2022-07-09T03:33:28;94810.78;;;17.09;100.00
6134;BME280;3098;42.678;23.364;2022-07-09T03:35:55;94784.28;;;17.04;100.00
6134;BME280;3098;42.678;23.364;2022-07-09T03:38:24;94796.78;;;17.15;100.00
6134;BME280;3098;42.678;23.364;2022-07-09T03:40:52;94792.28;;;17.19;100.00
6134;BME280;3098;42.678;23.364;2022-07-09T03:43:19;94799.16;;;17.20;100.00
6134;BME280;3098;42.678;23.364;2022-07-09T03:45:47;94752.63;;;16.75;100.00
6134;BME280;3098;42.678;23.364;2022-07-09T03:48:14;94797.75;;;17.07;100.00
6134;BME280;3098;42.678;23.364;2022-07-09T03:50:42;94781.72;;;16.92;100.00
6134;BME280;3098;42.678;23.364;2022-07-09T03:53:10;94792.81;;;17.09;100.00
6134;BME280;3098;42.678;23.364;2022-07-09T03:55:38;94764.72;;;16.84;100.00
6134;BME280;3098;42.678;23.364;2022-07-09T03:58:05;94788.31;;;17.13;100.00
6134;BME280;3098;42.678;23.364;2022-07-09T04:00:33;94805.38;;;17.24;100.00
6134;BME280;3098;42.678;23.364;2022-07-09T04:03:00;94793.59;;;17.29;100.00
6134;BME280;3098;42.678;23.364;2022-07-09T04:05:27;94795.78;;;17.23;100.00
6134;BME280;3098;42.678;23.364;2022-07-09T04:07:54;94800.66;;;17.18;100.00
6134;BME280;3098;42.678;23.364;2022-07-09T04:10:22;94800.22;;;17.16;100.00
6134;BME280;3098;42.678;23.364;2022-07-09T04:12:50;94807.56;;;17.19;100.00
6134;BME280;3098;42.678;23.364;2022-07-09T04:15:18;94806.91;;;17.06;100.00
6134;BME280;3098;42.678;23.364;2022-07-09T04:17:45;94800.75;;;17.06;100.00
6134;BME280;3098;42.678;23.364;2022-07-09T04:20:12;94820.59;;;17.01;100.00
6134;BME280;3098;42.678;23.364;2022-07-09T04:22:39;94816.78;;;17.02;100.00
6134;BME280;3098;42.678;23.364;2022-07-09T04:25:07;94810.88;;;17.12;100.00
6134;BME280;3098;42.678;23.364;2022-07-09T04:27:35;94826.47;;;17.26;100.00
6134;BME280;3098;42.678;23.364;2022-07-09T04:30:07;94833.09;;;17.13;100.00
6134;BME280;3098;42.678;23.364;2022-07-09T04:32:35;94818.19;;;16.96;100.00
6134;BME280;3098;42.678;23.364;2022-07-09T04:35:03;94804.22;;;17.06;100.00
6134;BME280;3098;42.678;23.364;2022-07-09T04:37:31;94811.94;;;17.08;100.00
6134;BME280;3098;42.678;23.364;2022-07-09T04:39:58;94820.81;;;17.12;100.00
6134;BME280;3098;42.678;23.364;2022-07-09T04:42:26;94783.56;;;17.07;100.00
6134;BME280;3098;42.678;23.364;2022-07-09T04:44:53;94811.75;;;17.36;100.00
6134;BME280;3098;42.678;23.364;2022-07-09T04:47:22;94754.91;;;16.92;100.00
6134;BME280;3098;42.678;23.364;2022-07-09T04:49:49;94815.13;;;17.33;100.00
6134;BME280;3098;42.678;23.364;2022-07-09T04:52:16;94815.78;;;17.45;100.00
6134;BME280;3098;42.678;23.364;2022-07-09T04:54:45;94820.00;;;17.46;100.00
6134;BME280;3098;42.678;23.364;2022-07-09T04:57:12;94799.75;;;17.30;100.00
6134;BME280;3098;42.678;23.364;2022-07-09T04:59:39;94819.16;;;17.42;100.00
6134;BME280;3098;42.678;23.364;2022-07-09T05:02:07;94792.59;;;17.18;100.00
6134;BME280;3098;42.678;23.364;2022-07-09T05:04:35;94823.66;;;17.38;100.00
6134;BME280;3098;42.678;23.364;2022-07-09T05:07:03;94823.47;;;17.28;100.00
6134;BME280;3098;42.678;23.364;2022-07-09T05:09:31;94810.84;;;17.47;100.00
6134;BME280;3098;42.678;23.364;2022-07-09T05:11:58;94818.34;;;17.57;100.00
6134;BME280;3098;42.678;23.364;2022-07-09T05:14:25;94826.72;;;17.37;100.00
6134;BME280;3098;42.678;23.364;2022-07-09T05:16:52;94809.63;;;17.45;100.00
6134;BME280;3098;42.678;23.364;2022-07-09T05:19:20;94827.81;;;17.70;100.00
6134;BME280;3098;42.678;23.364;2022-07-09T05:21:58;94833.09;;;17.67;100.00
6134;BME280;3098;42.678;23.364;2022-07-09T05:24:25;94825.19;;;17.55;100.00
6134;BME280;3098;42.678;23.364;2022-07-09T05:26:53;94837.56;;;17.59;100.00
6134;BME280;3098;42.678;23.364;2022-07-09T05:29:33;94837.06;;;17.54;100.00
6134;BME280;3098;42.678;23.364;2022-07-09T05:32:13;94834.88;;;17.59;100.00
6134;BME280;3098;42.678;23.364;2022-07-09T05:34:41;94811.16;;;17.46;100.00
6134;BME280;3098;42.678;23.364;2022-07-09T05:37:10;94852.78;;;17.55;100.00
6134;BME280;3098;42.678;23.364;2022-07-09T05:39:38;94834.56;;;17.45;100.00
6134;BME280;3098;42.678;23.364;2022-07-09T05:42:06;94836.00;;;17.58;100.00
6134;BME280;3098;42.678;23.364;2022-07-09T05:44:33;94831.09;;;17.45;100.00
6134;BME280;3098;42.678;23.364;2022-07-09T05:47:00;94852.91;;;17.62;100.00
6134;BME280;3098;42.678;23.364;2022-07-09T05:49:28;94848.38;;;17.47;100.00
6134;BME280;3098;42.678;23.364;2022-07-09T05:51:55;94831.63;;;17.35;100.00
6134;BME280;3098;42.678;23.364;2022-07-09T05:54:25;94847.91;;;17.61;100.00
6134;BME280;3098;42.678;23.364;2022-07-09T05:56:53;94775.91;;;17.24;100.00
6134;BME280;3098;42.678;23.364;2022-07-09T05:59:20;94841.25;;;17.74;100.00
6134;BME280;3098;42.678;23.364;2022-07-09T06:01:47;94854.34;;;17.56;100.00
6134;BME280;3098;42.678;23.364;2022-07-09T06:04:14;94829.44;;;17.40;100.00
6134;BME280;3098;42.678;23.364;2022-07-09T06:06:42;94854.19;;;17.68;100.00
6134;BME280;3098;42.678;23.364;2022-07-09T06:09:12;94855.47;;;17.55;100.00
6134;BME280;3098;42.678;23.364;2022-07-09T06:11:41;94804.03;;;17.34;100.00
6134;BME280;3098;42.678;23.364;2022-07-09T06:14:08;94850.94;;;17.78;100.00
6134;BME280;3098;42.678;23.364;2022-07-09T06:16:36;94858.00;;;17.67;100.00
6134;BME280;3098;42.678;23.364;2022-07-09T06:19:13;94845.31;;;17.49;100.00
6134;BME280;3098;42.678;23.364;2022-07-09T06:21:49;94856.88;;;17.88;100.00
6134;BME280;3098;42.678;23.364;2022-07-09T06:24:16;94841.44;;;17.62;100.00
6134;BME280;3098;42.678;23.364;2022-07-09T06:26:45;94859.34;;;17.77;100.00
6134;BME280;3098;42.678;23.364;2022-07-09T06:29:15;94855.31;;;17.87;100.00
6134;BME280;3098;42.678;23.364;2022-07-09T06:31:48;94867.72;;;17.95;100.00
6134;BME280;3098;42.678;23.364;2022-07-09T06:34:17;94864.50;;;18.05;100.00
6134;BME280;3098;42.678;23.364;2022-07-09T06:36:45;94863.94;;;17.96;100.00
6134;BME280;3098;42.678;23.364;2022-07-09T06:39:14;94869.84;;;18.05;100.00
6134;BME280;3098;42.678;23.364;2022-07-09T06:42:05;94869.34;;;18.18;100.00
6134;BME280;3098;42.678;23.364;2022-07-09T06:44:33;94868.16;;;18.16;100.00
6134;BME280;3098;42.678;23.364;2022-07-09T06:47:00;94874.28;;;18.16;100.00
6134;BME280;3098;42.678;23.364;2022-07-09T06:49:28;94871.66;;;18.20;100.00
6134;BME280;3098;42.678;23.364;2022-07-09T06:51:55;94849.38;;;17.97;100.00
6134;BME280;3098;42.678;23.364;2022-07-09T06:54:23;94847.47;;;17.97;100.00
6134;BME280;3098;42.678;23.364;2022-07-09T06:56:51;94868.16;;;17.97;100.00
6134;BME280;3098;42.678;23.364;2022-07-09T06:59:20;94859.47;;;18.03;100.00
6134;BME280;3098;42.678;23.364;2022-07-09T07:01:47;94872.22;;;18.29;100.00
6134;BME280;3098;42.678;23.364;2022-07-09T07:04:16;94869.16;;;18.08;100.00
6134;BME280;3098;42.678;23.364;2022-07-09T07:06:44;94877.75;;;17.98;100.00
6134;BME280;3098;42.678;23.364;2022-07-09T07:09:12;94864.03;;;18.03;100.00
6134;BME280;3098;42.678;23.364;2022-07-09T07:11:39;94870.41;;;17.95;100.00
6134;BME280;3098;42.678;23.364;2022-07-09T07:14:06;94822.72;;;17.85;100.00
6134;BME280;3098;42.678;23.364;2022-07-09T07:16:36;94873.91;;;18.60;100.00
6134;BME280;3098;42.678;23.364;2022-07-09T07:19:03;94841.28;;;18.58;100.00
6134;BME280;3098;42.678;23.364;2022-07-09T07:21:31;94817.16;;;18.61;100.00
6134;BME280;3098;42.678;23.364;2022-07-09T07:23:59;94850.97;;;19.15;100.00
6134;BME280;3098;42.678;23.364;2022-07-09T07:26:26;94866.75;;;19.42;100.00
6134;BME280;3098;42.678;23.364;2022-07-09T07:28:53;94875.13;;;19.64;100.00
6134;BME280;3098;42.678;23.364;2022-07-09T07:31:21;94861.97;;;19.88;100.00
6134;BME280;3098;42.678;23.364;2022-07-09T07:33:50;94871.81;;;20.11;100.00
6134;BME280;3098;42.678;23.364;2022-07-09T07:36:17;94868.72;;;20.08;100.00
6134;BME280;3098;42.678;23.364;2022-07-09T07:38:45;94856.38;;;20.07;100.00
6134;BME280;3098;42.678;23.364;2022-07-09T07:41:13;94879.56;;;20.49;100.00
6134;BME280;3098;42.678;23.364;2022-07-09T07:43:42;94867.72;;;20.60;100.00
6134;BME280;3098;42.678;23.364;2022-07-09T07:46:09;94858.88;;;20.23;100.00
6134;BME280;3098;42.678;23.364;2022-07-09T07:48:37;94866.53;;;20.18;100.00
6134;BME280;3098;42.678;23.364;2022-07-09T07:51:09;94878.44;;;20.17;100.00
6134;BME280;3098;42.678;23.364;2022-07-09T07:53:36;94879.34;;;19.98;100.00
6134;BME280;3098;42.678;23.364;2022-07-09T07:56:05;94862.69;;;19.85;100.00
6134;BME280;3098;42.678;23.364;2022-07-09T07:58:33;94857.22;;;20.15;100.00
6134;BME280;3098;42.678;23.364;2022-07-09T08:01:00;94875.78;;;20.60;100.00
6134;BME280;3098;42.678;23.364;2022-07-09T08:03:28;94863.09;;;20.57;100.00
6134;BME280;3098;42.678;23.364;2022-07-09T08:05:56;94843.53;;;20.27;100.00
6134;BME280;3098;42.678;23.364;2022-07-09T08:08:25;94871.69;;;20.74;100.00
6134;BME280;3098;42.678;23.364;2022-07-09T08:10:53;94851.34;;;20.83;100.00
6134;BME280;3098;42.678;23.364;2022-07-09T08:13:20;94860.13;;;20.73;100.00
6134;BME280;3098;42.678;23.364;2022-07-09T08:15:48;94864.78;;;20.36;100.00
6134;BME280;3098;42.678;23.364;2022-07-09T08:18:15;94827.91;;;20.06;100.00
6134;BME280;3098;42.678;23.364;2022-07-09T08:20:43;94873.41;;;20.48;100.00
6134;BME280;3098;42.678;23.364;2022-07-09T08:23:10;94872.63;;;20.15;100.00
6134;BME280;3098;42.678;23.364;2022-07-09T08:25:39;94847.75;;;19.91;100.00
6134;BME280;3098;42.678;23.364;2022-07-09T08:28:05;94875.19;;;20.00;100.00
6134;BME280;3098;42.678;23.364;2022-07-09T08:30:33;94869.59;;;20.20;100.00
6134;BME280;3098;42.678;23.364;2022-07-09T08:33:00;94871.19;;;20.24;100.00
6134;BME280;3098;42.678;23.364;2022-07-09T08:35:27;94860.84;;;20.63;100.00
6134;BME280;3098;42.678;23.364;2022-07-09T08:37:55;94881.00;;;20.80;100.00
6134;BME280;3098;42.678;23.364;2022-07-09T08:40:22;94880.31;;;20.93;100.00
6134;BME280;3098;42.678;23.364;2022-07-09T08:42:54;94885.69;;;20.46;100.00
6134;BME280;3098;42.678;23.364;2022-07-09T08:45:21;94848.13;;;19.90;100.00
6134;BME280;3098;42.678;23.364;2022-07-09T08:47:51;94879.53;;;20.12;100.00
6134;BME280;3098;42.678;23.364;2022-07-09T08:50:19;94866.81;;;20.09;100.00
6134;BME280;3098;42.678;23.364;2022-07-09T08:52:49;94890.59;;;20.37;100.00
6134;BME280;3098;42.678;23.364;2022-07-09T08:55:18;94884.84;;;20.05;100.00
6134;BME280;3098;42.678;23.364;2022-07-09T08:57:46;94883.94;;;20.27;100.00
6134;BME280;3098;42.678;23.364;2022-07-09T09:00:15;94882.81;;;20.28;100.00
6134;BME280;3098;42.678;23.364;2022-07-09T09:02:42;94893.88;;;20.56;100.00
6134;BME280;3098;42.678;23.364;2022-07-09T09:05:11;94883.44;;;20.18;100.00
6134;BME280;3098;42.678;23.364;2022-07-09T09:07:38;94866.66;;;19.98;100.00
6134;BME280;3098;42.678;23.364;2022-07-09T09:10:06;94886.91;;;20.19;100.00
6134;BME280;3098;42.678;23.364;2022-07-09T09:12:34;94887.72;;;20.23;100.00
6134;BME280;3098;42.678;23.364;2022-07-09T09:15:05;94873.13;;;19.90;100.00
6134;BME280;3098;42.678;23.364;2022-07-09T09:17:42;94884.72;;;19.94;100.00
6134;BME280;3098;42.678;23.364;2022-07-09T09:20:13;94854.66;;;19.59;100.00
6134;BME280;3098;42.678;23.364;2022-07-09T09:22:45;94894.66;;;19.90;100.00
6134;BME280;3098;42.678;23.364;2022-07-09T09:25:16;94887.75;;;19.93;100.00
6134;BME280;3098;42.678;23.364;2022-07-09T09:27:51;94846.28;;;19.97;100.00
6134;BME280;3098;42.678;23.364;2022-07-09T09:30:19;94884.94;;;20.16;100.00
6134;BME280;3098;42.678;23.364;2022-07-09T09:32:56;94879.50;;;20.08;100.00
6134;BME280;3098;42.678;23.364;2022-07-09T09:35:24;94884.66;;;20.24;100.00
6134;BME280;3098;42.678;23.364;2022-07-09T09:37:52;94874.56;;;20.14;100.00
6134;BME280;3098;42.678;23.364;2022-07-09T09:40:19;94883.16;;;20.27;100.00
6134;BME280;3098;42.678;23.364;2022-07-09T09:42:48;94880.50;;;20.30;100.00
6134;BME280;3098;42.678;23.364;2022-07-09T09:45:16;94777.00;;;19.91;100.00
6134;BME280;3098;42.678;23.364;2022-07-09T09:47:46;94880.00;;;20.58;98.06
6134;BME280;3098;42.678;23.364;2022-07-09T09:50:19;94890.94;;;20.76;97.28
6134;BME280;3098;42.678;23.364;2022-07-09T09:52:47;94821.03;;;20.09;97.07
6134;BME280;3098;42.678;23.364;2022-07-09T09:55:16;94879.44;;;20.38;97.67
6134;BME280;3098;42.678;23.364;2022-07-09T09:57:44;94870.41;;;20.24;100.00
6134;BME280;3098;42.678;23.364;2022-07-09T10:00:14;94839.28;;;19.89;99.41
6134;BME280;3098;42.678;23.364;2022-07-09T10:02:44;94843.09;;;19.55;99.24
6134;BME280;3098;42.678;23.364;2022-07-09T10:05:13;94883.88;;;19.57;100.00
6134;BME280;3098;42.678;23.364;2022-07-09T10:07:42;94839.31;;;19.33;100.00
6134;BME280;3098;42.678;23.364;2022-07-09T10:10:18;94885.88;;;19.64;100.00
6134;BME280;3098;42.678;23.364;2022-07-09T10:12:46;94885.09;;;19.37;100.00
6134;BME280;3098;42.678;23.364;2022-07-09T10:15:20;94836.88;;;19.21;100.00
6134;BME280;3098;42.678;23.364;2022-07-09T10:17:47;94846.81;;;19.47;100.00
6134;BME280;3098;42.678;23.364;2022-07-09T10:20:14;94888.69;;;19.74;100.00
6134;BME280;3098;42.678;23.364;2022-07-09T10:22:44;94886.81;;;19.78;100.00
6134;BME280;3098;42.678;23.364;2022-07-09T10:25:22;94886.47;;;20.13;100.00
6134;BME280;3098;42.678;23.364;2022-07-09T10:27:50;94824.59;;;19.83;100.00
6134;BME280;3098;42.678;23.364;2022-07-09T10:30:24;94878.91;;;19.92;99.74
6134;BME280;3098;42.678;23.364;2022-07-09T10:33:02;94890.22;;;19.75;100.00
6134;BME280;3098;42.678;23.364;2022-07-09T10:35:30;94880.34;;;19.53;100.00
6134;BME280;3098;42.678;23.364;2022-07-09T10:37:59;94896.13;;;19.84;100.00
6134;BME280;3098;42.678;23.364;2022-07-09T10:40:26;94892.06;;;19.97;100.00
6134;BME280;3098;42.678;23.364;2022-07-09T10:43:03;94875.19;;;19.71;98.72
6134;BME280;3098;42.678;23.364;2022-07-09T10:45:40;94848.56;;;19.36;100.00
6134;BME280;3098;42.678;23.364;2022-07-09T10:48:11;94894.31;;;19.62;100.00
6134;BME280;3098;42.678;23.364;2022-07-09T10:50:40;94893.03;;;19.82;100.00
6134;BME280;3098;42.678;23.364;2022-07-09T10:53:09;94867.44;;;19.66;99.28
6134;BME280;3098;42.678;23.364;2022-07-09T10:55:37;94888.09;;;19.88;99.50
6134;BME280;3098;42.678;23.364;2022-07-09T10:58:16;94897.81;;;19.66;100.00
6134;BME280;3098;42.678;23.364;2022-07-09T11:00:43;94897.94;;;19.21;100.00
6134;BME280;3098;42.678;23.364;2022-07-09T11:03:10;94906.69;;;18.69;100.00
6134;BME280;3098;42.678;23.364;2022-07-09T11:05:44;94892.47;;;18.68;100.00
6134;BME280;3098;42.678;23.364;2022-07-09T11:08:13;94870.84;;;18.38;100.00
6134;BME280;3098;42.678;23.364;2022-07-09T11:10:40;94850.25;;;18.46;100.00
6134;BME280;3098;42.678;23.364;2022-07-09T11:13:08;94897.28;;;18.78;100.00
6134;BME280;3098;42.678;23.364;2022-07-09T11:15:36;94792.84;;;18.09;100.00
6134;BME280;3098;42.678;23.364;2022-07-09T11:18:05;94902.88;;;18.70;100.00
6134;BME280;3098;42.678;23.364;2022-07-09T11:20:37;94894.53;;;18.75;100.00
6134;BME280;3098;42.678;23.364;2022-07-09T11:23:05;94895.75;;;19.04;100.00
6134;BME280;3098;42.678;23.364;2022-07-09T11:25:33;94899.59;;;18.80;100.00
6134;BME280;3098;42.678;23.364;2022-07-09T11:28:01;94900.91;;;18.89;100.00
6134;BME280;3098;42.678;23.364;2022-07-09T11:30:29;94883.59;;;18.87;100.00
6134;BME280;3098;42.678;23.364;2022-07-09T11:32:58;94891.91;;;19.05;100.00
6134;BME280;3098;42.678;23.364;2022-07-09T11:35:28;94880.94;;;19.39;100.00
6134;BME280;3098;42.678;23.364;2022-07-09T11:37:57;94904.44;;;19.72;100.00
6134;BME280;3098;42.678;23.364;2022-07-09T11:40:25;94860.28;;;19.21;100.00
6134;BME280;3098;42.678;23.364;2022-07-09T11:42:54;94885.31;;;19.51;100.00
6134;BME280;3098;42.678;23.364;2022-07-09T11:45:23;94898.50;;;19.60;100.00
6134;BME280;3098;42.678;23.364;2022-07-09T11:48:02;94883.25;;;19.71;100.00
6134;BME280;3098;42.678;23.364;2022-07-09T11:50:30;94867.72;;;19.57;100.00
6134;BME280;3098;42.678;23.364;2022-07-09T11:52:58;94885.03;;;19.60;100.00
6134;BME280;3098;42.678;23.364;2022-07-09T11:55:29;94896.13;;;19.55;100.00
6134;BME280;3098;42.678;23.364;2022-07-09T11:57:59;94901.91;;;19.57;100.00
6134;BME280;3098;42.678;23.364;2022-07-09T12:00:32;94901.28;;;19.67;100.00
6134;BME280;3098;42.678;23.364;2022-07-09T12:03:00;94856.31;;;19.67;100.00
6134;BME280;3098;42.678;23.364;2022-07-09T12:05:30;94896.13;;;19.84;100.00
6134;BME280;3098;42.678;23.364;2022-07-09T12:07:58;94897.28;;;20.17;100.00
6134;BME280;3098;42.678;23.364;2022-07-09T12:10:29;94889.06;;;20.39;100.00
6134;BME280;3098;42.678;23.364;2022-07-09T12:13:00;94884.00;;;20.71;98.85
6134;BME280;3098;42.678;23.364;2022-07-09T12:15:28;94885.59;;;20.79;97.33
6134;BME280;3098;42.678;23.364;2022-07-09T12:17:56;94886.41;;;21.31;94.92
6134;BME280;3098;42.678;23.364;2022-07-09T12:20:24;94883.25;;;21.22;94.77
6134;BME280;3098;42.678;23.364;2022-07-09T12:22:52;94879.38;;;21.19;94.14
6134;BME280;3098;42.678;23.364;2022-07-09T12:25:19;94885.41;;;21.02;94.73
6134;BME280;3098;42.678;23.364;2022-07-09T12:27:47;94879.28;;;20.61;96.73
6134;BME280;3098;42.678;23.364;2022-07-09T12:30:16;94877.38;;;20.25;97.58
6134;BME280;3098;42.678;23.364;2022-07-09T12:32:43;94878.78;;;20.52;98.31
6134;BME280;3098;42.678;23.364;2022-07-09T12:35:11;94872.34;;;20.60;97.39
6134;BME280;3098;42.678;23.364;2022-07-09T12:37:38;94875.56;;;20.36;98.57
6134;BME280;3098;42.678;23.364;2022-07-09T12:40:08;94854.63;;;20.22;99.42
6134;BME280;3098;42.678;23.364;2022-07-09T12:42:36;94857.50;;;20.03;100.00
6134;BME280;3098;42.678;23.364;2022-07-09T12:45:04;94870.78;;;20.22;99.21
6134;BME280;3098;42.678;23.364;2022-07-09T12:47:33;94862.31;;;20.57;98.88
6134;BME280;3098;42.678;23.364;2022-07-09T12:50:00;94855.63;;;20.40;97.06
6134;BME280;3098;42.678;23.364;2022-07-09T12:52:30;94865.47;;;20.66;97.10
6134;BME280;3098;42.678;23.364;2022-07-09T12:54:59;94869.19;;;20.51;96.79
6134;BME280;3098;42.678;23.364;2022-07-09T12:57:26;94866.53;;;20.58;96.20
6134;BME280;3098;42.678;23.364;2022-07-09T12:59:54;94866.03;;;20.86;94.78
6134;BME280;3098;42.678;23.364;2022-07-09T13:02:21;94870.34;;;20.53;94.70
6134;BME280;3098;42.678;23.364;2022-07-09T13:04:50;94864.44;;;20.37;96.99
6134;BME280;3098;42.678;23.364;2022-07-09T13:07:17;94860.56;;;20.01;98.06
6134;BME280;3098;42.678;23.364;2022-07-09T13:09:44;94809.94;;;19.47;99.18